sensor_id;sensor_type;location;lat;lon;timestamp;P1;durP1;ratioP1;P2;durP2;ratioP2
12120;SDS011;6124;59.460;17.908;2024-02-16T00:00:06;79.33;;;21.70;;
12120;SDS011;6124;59.460;17.908;2024-02-16T00:02:33;85.37;;;22.53;;
12120;SDS011;6124;59.460;17.908;2024-02-16T00:05:00;105.20;;;22.60;;
12120;SDS011;6124;59.460;17.908;2024-02-16T00:07:29;96.87;;;21.97;;
12120;SDS011;6124;59.460;17.908;2024-02-16T00:09:57;113.07;;;23.90;;
12120;SDS011;6124;59.460;17.908;2024-02-16T00:12:24;101.43;;;21.70;;
12120;SDS011;6124;59.460;17.908;2024-02-16T00:14:51;83.13;;;22.00;;
12120;SDS011;6124;59.460;17.908;2024-02-16T00:17:19;122.53;;;24.57;;
12120;SDS011;6124;59.460;17.908;2024-02-16T00:19:46;103.83;;;22.53;;
12120;SDS011;6124;59.460;17.908;2024-02-16T00:22:13;52.07;;;17.93;;
12120;SDS011;6124;59.460;17.908;2024-02-16T00:24:40;85.33;;;20.17;;
12120;SDS011;6124;59.460;17.908;2024-02-16T00:27:11;47.53;;;16.47;;
12120;SDS011;6124;59.460;17.908;2024-02-16T00:29:39;53.17;;;17.17;;
12120;SDS011;6124;59.460;17.908;2024-02-16T00:32:06;131.20;;;22.87;;
12120;SDS011;6124;59.460;17.908;2024-02-16T00:34:34;108.90;;;22.90;;
12120;SDS011;6124;59.460;17.908;2024-02-16T00:37:01;76.37;;;20.30;;
12120;SDS011;6124;59.460;17.908;2024-02-16T00:39:29;71.23;;;18.43;;
12120;SDS011;6124;59.460;17.908;2024-02-16T00:41:56;82.47;;;19.60;;
12120;SDS011;6124;59.460;17.908;2024-02-16T00:44:24;107.07;;;21.97;;
12120;SDS011;6124;59.460;17.908;2024-02-16T00:46:52;78.23;;;20.17;;
12120;SDS011;6124;59.460;17.908;2024-02-16T00:49:19;105.30;;;21.37;;
12120;SDS011;6124;59.460;17.908;2024-02-16T00:51:46;137.40;;;23.57;;
12120;SDS011;6124;59.460;17.908;2024-02-16T00:54:13;218.13;;;28.77;;
12120;SDS011;6124;59.460;17.908;2024-02-16T00:56:41;62.43;;;17.53;;
12120;SDS011;6124;59.460;17.908;2024-02-16T00:59:08;111.07;;;20.00;;
12120;SDS011;6124;59.460;17.908;2024-02-16T01:01:36;117.00;;;21.33;;
12120;SDS011;6124;59.460;17.908;2024-02-16T01:04:04;165.27;;;23.60;;
12120;SDS011;6124;59.460;17.908;2024-02-16T01:06:32;133.93;;;24.10;;
12120;SDS011;6124;59.460;17.908;2024-02-16T01:08:59;140.70;;;22.53;;
12120;SDS011;6124;59.460;17.908;2024-02-16T01:11:28;185.33;;;24.73;;
12120;SDS011;6124;59.460;17.908;2024-02-16T01:13:55;75.30;;;19.07;;
12120;SDS011;6124;59.460;17.908;2024-02-16T01:16:22;123.37;;;20.20;;
12120;SDS011;6124;59.460;17.908;2024-02-16T01:18:51;132.27;;;21.13;;
12120;SDS011;6124;59.460;17.908;2024-02-16T01:21:18;65.57;;;16.57;;
12120;SDS011;6124;59.460;17.908;2024-02-16T01:23:45;78.17;;;16.90;;
12120;SDS011;6124;59.460;17.908;2024-02-16T01:26:12;102.03;;;21.20;;
12120;SDS011;6124;59.460;17.908;2024-02-16T01:28:40;135.33;;;20.60;;
12120;SDS011;6124;59.460;17.908;2024-02-16T01:31:07;61.17;;;16.67;;
12120;SDS011;6124;59.460;17.908;2024-02-16T01:33:35;133.30;;;21.43;;
12120;SDS011;6124;59.460;17.908;2024-02-16T01:36:03;111.43;;;20.20;;
12120;SDS011;6124;59.460;17.908;2024-02-16T01:38:31;64.77;;;15.93;;
12120;SDS011;6124;59.460;17.908;2024-02-16T01:40:58;99.60;;;17.50;;
12120;SDS011;6124;59.460;17.908;2024-02-16T01:43:26;69.17;;;16.17;;
12120;SDS011;6124;59.460;17.908;2024-02-16T01:45:53;102.00;;;17.43;;
12120;SDS011;6124;59.460;17.908;2024-02-16T01:48:22;77.67;;;15.47;;
12120;SDS011;6124;59.460;17.908;2024-02-16T01:50:51;42.13;;;14.00;;
12120;SDS011;6124;59.460;17.908;2024-02-16T01:53:20;60.17;;;15.40;;
12120;SDS011;6124;59.460;17.908;2024-02-16T01:55:48;91.33;;;16.13;;
12120;SDS011;6124;59.460;17.908;2024-02-16T01:58:15;35.20;;;12.87;;
12120;SDS011;6124;59.460;17.908;2024-02-16T02:00:43;61.87;;;14.80;;
12120;SDS011;6124;59.460;17.908;2024-02-16T02:03:10;64.83;;;16.37;;
12120;SDS011;6124;59.460;17.908;2024-02-16T02:05:43;64.37;;;15.97;;
12120;SDS011;6124;59.460;17.908;2024-02-16T02:08:11;81.10;;;17.80;;
12120;SDS011;6124;59.460;17.908;2024-02-16T02:10:39;97.63;;;18.37;;
12120;SDS011;6124;59.460;17.908;2024-02-16T02:13:07;57.87;;;14.30;;
12120;SDS011;6124;59.460;17.908;2024-02-16T02:15:36;82.07;;;14.60;;
12120;SDS011;6124;59.460;17.908;2024-02-16T02:18:03;55.17;;;14.93;;
12120;SDS011;6124;59.460;17.908;2024-02-16T02:20:31;54.07;;;15.57;;
12120;SDS011;6124;59.460;17.908;2024-02-16T02:23:00;58.07;;;14.70;;
12120;SDS011;6124;59.460;17.908;2024-02-16T02:25:29;81.67;;;17.07;;
12120;SDS011;6124;59.460;17.908;2024-02-16T02:27:56;55.77;;;15.93;;
12120;SDS011;6124;59.460;17.908;2024-02-16T02:30:23;50.67;;;14.13;;
12120;SDS011;6124;59.460;17.908;2024-02-16T02:32:50;45.33;;;13.70;;
12120;SDS011;6124;59.460;17.908;2024-02-16T02:35:18;42.73;;;14.10;;
12120;SDS011;6124;59.460;17.908;2024-02-16T02:37:45;44.43;;;13.80;;
12120;SDS011;6124;59.460;17.908;2024-02-16T02:40:13;34.37;;;13.17;;
12120;SDS011;6124;59.460;17.908;2024-02-16T02:42:41;36.13;;;14.53;;
12120;SDS011;6124;59.460;17.908;2024-02-16T02:45:09;43.50;;;15.33;;
12120;SDS011;6124;59.460;17.908;2024-02-16T02:47:38;42.57;;;14.73;;
12120;SDS011;6124;59.460;17.908;2024-02-16T02:50:06;31.07;;;12.90;;
12120;SDS011;6124;59.460;17.908;2024-02-16T02:52:33;31.60;;;13.87;;
12120;SDS011;6124;59.460;17.908;2024-02-16T02:55:00;31.00;;;14.50;;
12120;SDS011;6124;59.460;17.908;2024-02-16T02:57:29;28.40;;;11.67;;
12120;SDS011;6124;59.460;17.908;2024-02-16T03:00:02;27.33;;;13.67;;
12120;SDS011;6124;59.460;17.908;2024-02-16T03:02:31;30.80;;;12.80;;
12120;SDS011;6124;59.460;17.908;2024-02-16T03:04:58;31.90;;;13.40;;
12120;SDS011;6124;59.460;17.908;2024-02-16T03:07:26;25.60;;;12.93;;
12120;SDS011;6124;59.460;17.908;2024-02-16T03:09:53;27.83;;;13.43;;
12120;SDS011;6124;59.460;17.908;2024-02-16T03:12:20;26.97;;;11.17;;
12120;SDS011;6124;59.460;17.908;2024-02-16T03:14:48;28.03;;;13.67;;
12120;SDS011;6124;59.460;17.908;2024-02-16T03:17:16;26.27;;;14.27;;
12120;SDS011;6124;59.460;17.908;2024-02-16T03:19:43;19.73;;;10.60;;
12120;SDS011;6124;59.460;17.908;2024-02-16T03:22:12;21.23;;;11.43;;
12120;SDS011;6124;59.460;17.908;2024-02-16T03:24:39;24.00;;;11.97;;
12120;SDS011;6124;59.460;17.908;2024-02-16T03:27:06;21.40;;;10.93;;
12120;SDS011;6124;59.460;17.908;2024-02-16T03:29:33;22.73;;;11.80;;
12120;SDS011;6124;59.460;17.908;2024-02-16T03:32:02;22.20;;;11.17;;
12120;SDS011;6124;59.460;17.908;2024-02-16T03:34:29;19.47;;;10.10;;
12120;SDS011;6124;59.460;17.908;2024-02-16T03:36:57;22.10;;;12.43;;
12120;SDS011;6124;59.460;17.908;2024-02-16T03:39:24;19.97;;;10.90;;
12120;SDS011;6124;59.460;17.908;2024-02-16T03:41:51;18.10;;;10.23;;
12120;SDS011;6124;59.460;17.908;2024-02-16T03:44:19;16.33;;;9.77;;
12120;SDS011;6124;59.460;17.908;2024-02-16T03:46:46;14.90;;;9.37;;
12120;SDS011;6124;59.460;17.908;2024-02-16T03:49:15;16.57;;;9.63;;
12120;SDS011;6124;59.460;17.908;2024-02-16T03:51:42;13.43;;;9.40;;
12120;SDS011;6124;59.460;17.908;2024-02-16T03:54:09;15.10;;;9.00;;
12120;SDS011;6124;59.460;17.908;2024-02-16T03:56:36;16.80;;;9.50;;
12120;SDS011;6124;59.460;17.908;2024-02-16T03:59:03;18.90;;;9.63;;
12120;SDS011;6124;59.460;17.908;2024-02-16T04:01:31;16.50;;;9.50;;
12120;SDS011;6124;59.460;17.908;2024-02-16T04:03:58;19.13;;;9.53;;
12120;SDS011;6124;59.460;17.908;2024-02-16T04:06:27;16.23;;;9.77;;
12120;SDS011;6124;59.460;17.908;2024-02-16T04:08:54;14.30;;;8.27;;
12120;SDS011;6124;59.460;17.908;2024-02-16T04:11:22;15.40;;;9.23;;
12120;SDS011;6124;59.460;17.908;2024-02-16T04:13:49;15.10;;;7.90;;
12120;SDS011;6124;59.460;17.908;2024-02-16T04:16:16;14.63;;;8.77;;
12120;SDS011;6124;59.460;17.908;2024-02-16T04:18:46;12.23;;;7.70;;
12120;SDS011;6124;59.460;17.908;2024-02-16T04:21:13;14.93;;;8.80;;
12120;SDS011;6124;59.460;17.908;2024-02-16T04:23:41;15.30;;;8.43;;
12120;SDS011;6124;59.460;17.908;2024-02-16T04:26:09;14.97;;;9.20;;
12120;SDS011;6124;59.460;17.908;2024-02-16T04:28:36;13.50;;;8.17;;
12120;SDS011;6124;59.460;17.908;2024-02-16T04:31:03;13.27;;;7.20;;
12120;SDS011;6124;59.460;17.908;2024-02-16T04:33:30;12.07;;;7.13;;
12120;SDS011;6124;59.460;17.908;2024-02-16T04:35:57;14.33;;;7.87;;
12120;SDS011;6124;59.460;17.908;2024-02-16T04:38:24;12.37;;;7.33;;
12120;SDS011;6124;59.460;17.908;2024-02-16T04:40:53;15.00;;;7.70;;
12120;SDS011;6124;59.460;17.908;2024-02-16T04:43:20;12.53;;;8.07;;
12120;SDS011;6124;59.460;17.908;2024-02-16T04:45:47;10.37;;;6.80;;
12120;SDS011;6124;59.460;17.908;2024-02-16T04:48:15;10.73;;;7.03;;
12120;SDS011;6124;59.460;17.908;2024-02-16T04:50:42;13.17;;;7.70;;
12120;SDS011;6124;59.460;17.908;2024-02-16T04:53:09;13.10;;;7.73;;
12120;SDS011;6124;59.460;17.908;2024-02-16T04:55:36;12.00;;;7.77;;
12120;SDS011;6124;59.460;17.908;2024-02-16T04:58:04;12.03;;;6.80;;
12120;SDS011;6124;59.460;17.908;2024-02-16T05:00:34;13.43;;;7.50;;
12120;SDS011;6124;59.460;17.908;2024-02-16T05:03:01;12.60;;;6.67;;
12120;SDS011;6124;59.460;17.908;2024-02-16T05:05:29;14.17;;;7.73;;
12120;SDS011;6124;59.460;17.908;2024-02-16T05:07:56;14.43;;;7.30;;
12120;SDS011;6124;59.460;17.908;2024-02-16T05:10:23;11.53;;;6.77;;
12120;SDS011;6124;59.460;17.908;2024-02-16T05:12:51;13.00;;;6.87;;
12120;SDS011;6124;59.460;17.908;2024-02-16T05:15:19;10.77;;;6.60;;
12120;SDS011;6124;59.460;17.908;2024-02-16T05:17:47;10.67;;;5.77;;
12120;SDS011;6124;59.460;17.908;2024-02-16T05:20:15;10.27;;;5.57;;
12120;SDS011;6124;59.460;17.908;2024-02-16T05:22:42;7.57;;;5.67;;
12120;SDS011;6124;59.460;17.908;2024-02-16T05:25:10;9.93;;;5.90;;
12120;SDS011;6124;59.460;17.908;2024-02-16T05:27:38;9.30;;;6.10;;
12120;SDS011;6124;59.460;17.908;2024-02-16T05:30:06;8.67;;;5.97;;
12120;SDS011;6124;59.460;17.908;2024-02-16T05:32:35;10.07;;;5.73;;
12120;SDS011;6124;59.460;17.908;2024-02-16T05:35:03;8.40;;;5.43;;
12120;SDS011;6124;59.460;17.908;2024-02-16T05:37:36;7.17;;;5.00;;
12120;SDS011;6124;59.460;17.908;2024-02-16T05:40:06;9.13;;;5.43;;
12120;SDS011;6124;59.460;17.908;2024-02-16T05:42:45;6.20;;;4.90;;
12120;SDS011;6124;59.460;17.908;2024-02-16T05:45:13;8.40;;;6.07;;
12120;SDS011;6124;59.460;17.908;2024-02-16T05:47:42;6.53;;;4.90;;
12120;SDS011;6124;59.460;17.908;2024-02-16T05:50:10;7.23;;;5.53;;
12120;SDS011;6124;59.460;17.908;2024-02-16T05:52:38;6.00;;;5.10;;
12120;SDS011;6124;59.460;17.908;2024-02-16T05:55:06;8.90;;;4.90;;
12120;SDS011;6124;59.460;17.908;2024-02-16T05:57:33;8.07;;;4.90;;
12120;SDS011;6124;59.460;17.908;2024-02-16T06:00:01;5.27;;;4.53;;
12120;SDS011;6124;59.460;17.908;2024-02-16T06:02:29;6.53;;;4.40;;
12120;SDS011;6124;59.460;17.908;2024-02-16T06:04:58;6.03;;;4.90;;
12120;SDS011;6124;59.460;17.908;2024-02-16T06:07:25;6.83;;;5.00;;
12120;SDS011;6124;59.460;17.908;2024-02-16T06:09:53;6.57;;;4.73;;
12120;SDS011;6124;59.460;17.908;2024-02-16T06:12:21;6.90;;;4.70;;
12120;SDS011;6124;59.460;17.908;2024-02-16T06:14:48;8.70;;;5.53;;
12120;SDS011;6124;59.460;17.908;2024-02-16T06:17:15;6.27;;;4.87;;
12120;SDS011;6124;59.460;17.908;2024-02-16T06:19:43;8.63;;;5.20;;
12120;SDS011;6124;59.460;17.908;2024-02-16T06:22:12;7.13;;;5.10;;
12120;SDS011;6124;59.460;17.908;2024-02-16T06:24:39;12.83;;;5.10;;
12120;SDS011;6124;59.460;17.908;2024-02-16T06:27:09;8.80;;;5.77;;
12120;SDS011;6124;59.460;17.908;2024-02-16T06:29:36;10.07;;;5.23;;
12120;SDS011;6124;59.460;17.908;2024-02-16T06:32:04;7.37;;;4.90;;
12120;SDS011;6124;59.460;17.908;2024-02-16T06:34:32;6.73;;;4.77;;
12120;SDS011;6124;59.460;17.908;2024-02-16T06:36:59;5.83;;;4.43;;
12120;SDS011;6124;59.460;17.908;2024-02-16T06:39:28;6.47;;;4.90;;
12120;SDS011;6124;59.460;17.908;2024-02-16T06:41:56;6.57;;;5.00;;
12120;SDS011;6124;59.460;17.908;2024-02-16T06:44:23;8.13;;;4.90;;
12120;SDS011;6124;59.460;17.908;2024-02-16T06:46:50;10.60;;;4.50;;
12120;SDS011;6124;59.460;17.908;2024-02-16T06:49:18;8.30;;;4.57;;
12120;SDS011;6124;59.460;17.908;2024-02-16T06:51:45;5.93;;;4.23;;
12120;SDS011;6124;59.460;17.908;2024-02-16T06:54:12;6.93;;;4.73;;
12120;SDS011;6124;59.460;17.908;2024-02-16T06:56:41;6.07;;;4.50;;
12120;SDS011;6124;59.460;17.908;2024-02-16T06:59:09;11.17;;;4.73;;
12120;SDS011;6124;59.460;17.908;2024-02-16T07:01:36;6.70;;;4.00;;
12120;SDS011;6124;59.460;17.908;2024-02-16T07:04:03;7.03;;;4.37;;
12120;SDS011;6124;59.460;17.908;2024-02-16T07:06:30;6.10;;;3.67;;
12120;SDS011;6124;59.460;17.908;2024-02-16T07:08:58;9.03;;;3.90;;
12120;SDS011;6124;59.460;17.908;2024-02-16T07:11:25;9.87;;;4.00;;
12120;SDS011;6124;59.460;17.908;2024-02-16T07:13:53;8.43;;;4.73;;
12120;SDS011;6124;59.460;17.908;2024-02-16T07:16:21;7.63;;;3.67;;
12120;SDS011;6124;59.460;17.908;2024-02-16T07:18:48;4.23;;;3.63;;
12120;SDS011;6124;59.460;17.908;2024-02-16T07:21:15;4.90;;;3.23;;
12120;SDS011;6124;59.460;17.908;2024-02-16T07:23:45;5.63;;;3.40;;
12120;SDS011;6124;59.460;17.908;2024-02-16T07:26:13;5.73;;;3.50;;
12120;SDS011;6124;59.460;17.908;2024-02-16T07:28:42;7.37;;;3.40;;
12120;SDS011;6124;59.460;17.908;2024-02-16T07:31:11;5.43;;;3.30;;
12120;SDS011;6124;59.460;17.908;2024-02-16T07:33:39;3.70;;;3.00;;
12120;SDS011;6124;59.460;17.908;2024-02-16T07:36:07;3.50;;;3.00;;
12120;SDS011;6124;59.460;17.908;2024-02-16T07:38:34;4.23;;;2.90;;
12120;SDS011;6124;59.460;17.908;2024-02-16T07:41:01;3.03;;;2.40;;
12120;SDS011;6124;59.460;17.908;2024-02-16T07:43:30;3.70;;;2.73;;
12120;SDS011;6124;59.460;17.908;2024-02-16T07:45:58;3.53;;;2.60;;
12120;SDS011;6124;59.460;17.908;2024-02-16T07:48:26;5.90;;;2.30;;
12120;SDS011;6124;59.460;17.908;2024-02-16T07:50:53;3.13;;;2.27;;
12120;SDS011;6124;59.460;17.908;2024-02-16T07:53:23;2.77;;;2.20;;
12120;SDS011;6124;59.460;17.908;2024-02-16T07:55:50;5.80;;;2.50;;
12120;SDS011;6124;59.460;17.908;2024-02-16T07:58:17;2.73;;;2.17;;
12120;SDS011;6124;59.460;17.908;2024-02-16T08:00:44;2.97;;;2.10;;
12120;SDS011;6124;59.460;17.908;2024-02-16T08:03:11;2.97;;;2.10;;
12120;SDS011;6124;59.460;17.908;2024-02-16T08:05:40;3.17;;;2.10;;
12120;SDS011;6124;59.460;17.908;2024-02-16T08:08:07;4.30;;;2.13;;
12120;SDS011;6124;59.460;17.908;2024-02-16T08:10:34;2.60;;;2.23;;
12120;SDS011;6124;59.460;17.908;2024-02-16T08:13:02;3.67;;;1.97;;
12120;SDS011;6124;59.460;17.908;2024-02-16T08:15:29;2.50;;;2.20;;
12120;SDS011;6124;59.460;17.908;2024-02-16T08:17:56;2.77;;;1.70;;
12120;SDS011;6124;59.460;17.908;2024-02-16T08:20:23;4.43;;;2.10;;
12120;SDS011;6124;59.460;17.908;2024-02-16T08:22:52;3.63;;;1.90;;
12120;SDS011;6124;59.460;17.908;2024-02-16T08:25:19;3.77;;;2.07;;
12120;SDS011;6124;59.460;17.908;2024-02-16T08:27:47;1.90;;;1.70;;
12120;SDS011;6124;59.460;17.908;2024-02-16T08:30:15;2.30;;;1.77;;
12120;SDS011;6124;59.460;17.908;2024-02-16T08:32:42;1.63;;;1.50;;
12120;SDS011;6124;59.460;17.908;2024-02-16T08:35:10;1.80;;;1.47;;
12120;SDS011;6124;59.460;17.908;2024-02-16T08:37:39;2.23;;;1.33;;
12120;SDS011;6124;59.460;17.908;2024-02-16T08:40:08;2.70;;;1.97;;
12120;SDS011;6124;59.460;17.908;2024-02-16T08:42:39;2.03;;;1.60;;
12120;SDS011;6124;59.460;17.908;2024-02-16T08:45:06;1.80;;;1.47;;
12120;SDS011;6124;59.460;17.908;2024-02-16T08:47:34;1.90;;;1.60;;
12120;SDS011;6124;59.460;17.908;2024-02-16T08:50:01;1.50;;;1.30;;
12120;SDS011;6124;59.460;17.908;2024-02-16T08:52:28;2.77;;;1.77;;
12120;SDS011;6124;59.460;17.908;2024-02-16T08:54:55;1.97;;;1.60;;
12120;SDS011;6124;59.460;17.908;2024-02-16T08:57:24;1.77;;;1.63;;
12120;SDS011;6124;59.460;17.908;2024-02-16T08:59:51;1.63;;;1.53;;
12120;SDS011;6124;59.460;17.908;2024-02-16T09:02:18;1.60;;;1.50;;
12120;SDS011;6124;59.460;17.908;2024-02-16T09:04:45;1.93;;;1.40;;
12120;SDS011;6124;59.460;17.908;2024-02-16T09:07:13;1.83;;;1.53;;
12120;SDS011;6124;59.460;17.908;2024-02-16T09:09:40;1.43;;;1.20;;
12120;SDS011;6124;59.460;17.908;2024-02-16T09:12:07;1.73;;;1.40;;
12120;SDS011;6124;59.460;17.908;2024-02-16T09:14:36;1.90;;;1.40;;
12120;SDS011;6124;59.460;17.908;2024-02-16T09:17:03;1.30;;;1.10;;
12120;SDS011;6124;59.460;17.908;2024-02-16T09:19:30;1.63;;;1.30;;
12120;SDS011;6124;59.460;17.908;2024-02-16T09:21:59;1.63;;;1.40;;
12120;SDS011;6124;59.460;17.908;2024-02-16T09:24:28;2.77;;;1.30;;
12120;SDS011;6124;59.460;17.908;2024-02-16T09:26:55;1.33;;;1.17;;
12120;SDS011;6124;59.460;17.908;2024-02-16T09:29:22;3.07;;;1.47;;
12120;SDS011;6124;59.460;17.908;2024-02-16T09:31:51;1.67;;;1.40;;
12120;SDS011;6124;59.460;17.908;2024-02-16T09:34:19;1.87;;;1.10;;
12120;SDS011;6124;59.460;17.908;2024-02-16T09:36:46;1.50;;;0.90;;
12120;SDS011;6124;59.460;17.908;2024-02-16T09:39:13;1.30;;;1.20;;
12120;SDS011;6124;59.460;17.908;2024-02-16T09:41:41;1.90;;;1.07;;
12120;SDS011;6124;59.460;17.908;2024-02-16T09:44:09;2.50;;;1.10;;
12120;SDS011;6124;59.460;17.908;2024-02-16T09:46:36;1.30;;;1.20;;
12120;SDS011;6124;59.460;17.908;2024-02-16T09:49:05;1.40;;;1.30;;
12120;SDS011;6124;59.460;17.908;2024-02-16T09:51:35;2.03;;;1.50;;
12120;SDS011;6124;59.460;17.908;2024-02-16T09:54:02;1.40;;;1.30;;
12120;SDS011;6124;59.460;17.908;2024-02-16T09:56:29;1.30;;;1.20;;
12120;SDS011;6124;59.460;17.908;2024-02-16T09:58:57;1.43;;;1.33;;
12120;SDS011;6124;59.460;17.908;2024-02-16T10:01:25;1.50;;;1.40;;
12120;SDS011;6124;59.460;17.908;2024-02-16T10:03:53;1.63;;;1.20;;
12120;SDS011;6124;59.460;17.908;2024-02-16T10:06:22;1.47;;;1.37;;
12120;SDS011;6124;59.460;17.908;2024-02-16T10:08:49;1.30;;;1.20;;
12120;SDS011;6124;59.460;17.908;2024-02-16T10:11:17;1.93;;;1.30;;
12120;SDS011;6124;59.460;17.908;2024-02-16T10:13:54;1.50;;;1.30;;
12120;SDS011;6124;59.460;17.908;2024-02-16T10:16:22;2.37;;;1.30;;
12120;SDS011;6124;59.460;17.908;2024-02-16T10:18:49;1.40;;;1.30;;
12120;SDS011;6124;59.460;17.908;2024-02-16T10:21:25;2.40;;;1.37;;
12120;SDS011;6124;59.460;17.908;2024-02-16T10:23:56;1.70;;;1.40;;
12120;SDS011;6124;59.460;17.908;2024-02-16T10:26:23;1.90;;;1.30;;
12120;SDS011;6124;59.460;17.908;2024-02-16T10:28:51;1.53;;;1.30;;
12120;SDS011;6124;59.460;17.908;2024-02-16T10:31:20;1.47;;;1.30;;
12120;SDS011;6124;59.460;17.908;2024-02-16T10:33:54;1.60;;;1.40;;
12120;SDS011;6124;59.460;17.908;2024-02-16T10:36:22;1.47;;;1.37;;
12120;SDS011;6124;59.460;17.908;2024-02-16T10:38:52;1.67;;;1.50;;
12120;SDS011;6124;59.460;17.908;2024-02-16T10:41:21;1.53;;;1.30;;
12120;SDS011;6124;59.460;17.908;2024-02-16T10:43:49;1.87;;;1.47;;
12120;SDS011;6124;59.460;17.908;2024-02-16T10:46:16;1.47;;;1.37;;
12120;SDS011;6124;59.460;17.908;2024-02-16T10:48:43;1.73;;;1.40;;
12120;SDS011;6124;59.460;17.908;2024-02-16T10:51:10;1.40;;;1.30;;
12120;SDS011;6124;59.460;17.908;2024-02-16T10:53:38;1.23;;;1.07;;
12120;SDS011;6124;59.460;17.908;2024-02-16T10:56:07;1.60;;;1.40;;
12120;SDS011;6124;59.460;17.908;2024-02-16T10:58:35;1.73;;;1.20;;
12120;SDS011;6124;59.460;17.908;2024-02-16T11:01:08;1.40;;;1.20;;
12120;SDS011;6124;59.460;17.908;2024-02-16T11:03:37;1.33;;;1.23;;
12120;SDS011;6124;59.460;17.908;2024-02-16T11:06:11;1.30;;;1.17;;
12120;SDS011;6124;59.460;17.908;2024-02-16T11:08:41;1.30;;;1.20;;
12120;SDS011;6124;59.460;17.908;2024-02-16T11:11:09;1.80;;;1.10;;
12120;SDS011;6124;59.460;17.908;2024-02-16T11:13:38;1.50;;;1.10;;
12120;SDS011;6124;59.460;17.908;2024-02-16T11:16:06;2.27;;;1.20;;
12120;SDS011;6124;59.460;17.908;2024-02-16T11:18:37;1.57;;;1.10;;
12120;SDS011;6124;59.460;17.908;2024-02-16T11:21:04;1.50;;;1.40;;
12120;SDS011;6124;59.460;17.908;2024-02-16T11:23:33;1.50;;;1.30;;
12120;SDS011;6124;59.460;17.908;2024-02-16T11:26:01;3.70;;;2.83;;
12120;SDS011;6124;59.460;17.908;2024-02-16T11:28:32;1.27;;;1.17;;
12120;SDS011;6124;59.460;17.908;2024-02-16T11:30:59;1.57;;;1.23;;
12120;SDS011;6124;59.460;17.908;2024-02-16T11:33:27;2.00;;;1.40;;
12120;SDS011;6124;59.460;17.908;2024-02-16T11:35:55;2.07;;;1.40;;
12120;SDS011;6124;59.460;17.908;2024-02-16T11:38:23;1.43;;;1.33;;
12120;SDS011;6124;59.460;17.908;2024-02-16T11:40:54;1.70;;;1.60;;
12120;SDS011;6124;59.460;17.908;2024-02-16T11:43:21;1.90;;;1.60;;
12120;SDS011;6124;59.460;17.908;2024-02-16T11:45:49;1.80;;;1.40;;
12120;SDS011;6124;59.460;17.908;2024-02-16T11:48:20;1.63;;;1.50;;
12120;SDS011;6124;59.460;17.908;2024-02-16T11:50:48;2.27;;;1.70;;
12120;SDS011;6124;59.460;17.908;2024-02-16T11:53:18;1.90;;;1.53;;
12120;SDS011;6124;59.460;17.908;2024-02-16T11:55:46;3.17;;;1.80;;
12120;SDS011;6124;59.460;17.908;2024-02-16T11:58:15;2.23;;;1.83;;
12120;SDS011;6124;59.460;17.908;2024-02-16T12:00:42;1.73;;;1.63;;
12120;SDS011;6124;59.460;17.908;2024-02-16T12:03:11;2.13;;;1.50;;
12120;SDS011;6124;59.460;17.908;2024-02-16T12:05:38;2.57;;;2.00;;
12120;SDS011;6124;59.460;17.908;2024-02-16T12:08:06;2.27;;;1.67;;
12120;SDS011;6124;59.460;17.908;2024-02-16T12:10:33;1.63;;;1.53;;
12120;SDS011;6124;59.460;17.908;2024-02-16T12:13:01;2.00;;;1.53;;
12120;SDS011;6124;59.460;17.908;2024-02-16T12:15:28;1.50;;;1.40;;
12120;SDS011;6124;59.460;17.908;2024-02-16T12:17:59;1.77;;;1.40;;
12120;SDS011;6124;59.460;17.908;2024-02-16T12:20:29;1.73;;;1.40;;
12120;SDS011;6124;59.460;17.908;2024-02-16T12:22:57;1.93;;;1.70;;
12120;SDS011;6124;59.460;17.908;2024-02-16T12:25:27;1.97;;;1.33;;
12120;SDS011;6124;59.460;17.908;2024-02-16T12:27:54;1.50;;;1.40;;
12120;SDS011;6124;59.460;17.908;2024-02-16T12:30:21;2.00;;;1.60;;
12120;SDS011;6124;59.460;17.908;2024-02-16T12:32:48;1.50;;;1.40;;
12120;SDS011;6124;59.460;17.908;2024-02-16T12:35:16;1.57;;;1.47;;
12120;SDS011;6124;59.460;17.908;2024-02-16T12:37:45;2.10;;;1.70;;
12120;SDS011;6124;59.460;17.908;2024-02-16T12:40:12;1.63;;;1.53;;
12120;SDS011;6124;59.460;17.908;2024-02-16T12:42:39;1.50;;;1.40;;
12120;SDS011;6124;59.460;17.908;2024-02-16T12:45:07;1.77;;;1.67;;
12120;SDS011;6124;59.460;17.908;2024-02-16T12:47:35;1.93;;;1.50;;
12120;SDS011;6124;59.460;17.908;2024-02-16T12:50:03;2.03;;;1.40;;
12120;SDS011;6124;59.460;17.908;2024-02-16T12:52:30;2.00;;;1.60;;
12120;SDS011;6124;59.460;17.908;2024-02-16T12:55:00;2.93;;;1.70;;
12120;SDS011;6124;59.460;17.908;2024-02-16T12:57:27;1.90;;;1.70;;
12120;SDS011;6124;59.460;17.908;2024-02-16T12:59:54;1.60;;;1.50;;
12120;SDS011;6124;59.460;17.908;2024-02-16T13:02:22;2.83;;;1.70;;
12120;SDS011;6124;59.460;17.908;2024-02-16T13:04:49;1.60;;;1.47;;
12120;SDS011;6124;59.460;17.908;2024-02-16T13:07:18;2.10;;;1.73;;
12120;SDS011;6124;59.460;17.908;2024-02-16T13:09:45;2.63;;;1.40;;
12120;SDS011;6124;59.460;17.908;2024-02-16T13:12:14;1.73;;;1.60;;
12120;SDS011;6124;59.460;17.908;2024-02-16T13:14:41;2.27;;;1.70;;
12120;SDS011;6124;59.460;17.908;2024-02-16T13:17:08;1.73;;;1.63;;
12120;SDS011;6124;59.460;17.908;2024-02-16T13:19:35;1.80;;;1.60;;
12120;SDS011;6124;59.460;17.908;2024-02-16T13:22:03;2.20;;;1.47;;
12120;SDS011;6124;59.460;17.908;2024-02-16T13:24:30;2.07;;;1.63;;
12120;SDS011;6124;59.460;17.908;2024-02-16T13:26:58;1.87;;;1.60;;
12120;SDS011;6124;59.460;17.908;2024-02-16T13:29:27;1.70;;;1.60;;
12120;SDS011;6124;59.460;17.908;2024-02-16T13:31:55;2.03;;;1.50;;
12120;SDS011;6124;59.460;17.908;2024-02-16T13:34:22;1.80;;;1.50;;
12120;SDS011;6124;59.460;17.908;2024-02-16T13:36:50;1.77;;;1.60;;
12120;SDS011;6124;59.460;17.908;2024-02-16T13:39:17;3.97;;;1.90;;
12120;SDS011;6124;59.460;17.908;2024-02-16T13:41:44;2.23;;;1.60;;
12120;SDS011;6124;59.460;17.908;2024-02-16T13:44:13;1.70;;;1.43;;
12120;SDS011;6124;59.460;17.908;2024-02-16T13:46:42;2.33;;;1.40;;
12120;SDS011;6124;59.460;17.908;2024-02-16T13:49:11;1.73;;;1.53;;
12120;SDS011;6124;59.460;17.908;2024-02-16T13:51:39;2.13;;;1.93;;
12120;SDS011;6124;59.460;17.908;2024-02-16T13:54:06;2.37;;;1.83;;
12120;SDS011;6124;59.460;17.908;2024-02-16T13:56:33;1.90;;;1.70;;
12120;SDS011;6124;59.460;17.908;2024-02-16T13:59:01;1.77;;;1.67;;
12120;SDS011;6124;59.460;17.908;2024-02-16T14:01:28;2.50;;;1.70;;
12120;SDS011;6124;59.460;17.908;2024-02-16T14:03:57;1.63;;;1.53;;
12120;SDS011;6124;59.460;17.908;2024-02-16T14:06:24;1.83;;;1.60;;
12120;SDS011;6124;59.460;17.908;2024-02-16T14:08:51;1.90;;;1.70;;
12120;SDS011;6124;59.460;17.908;2024-02-16T14:11:18;1.67;;;1.53;;
12120;SDS011;6124;59.460;17.908;2024-02-16T14:13:46;1.90;;;1.70;;
12120;SDS011;6124;59.460;17.908;2024-02-16T14:16:13;1.70;;;1.50;;
12120;SDS011;6124;59.460;17.908;2024-02-16T14:18:41;1.70;;;1.60;;
12120;SDS011;6124;59.460;17.908;2024-02-16T14:21:09;3.10;;;1.83;;
12120;SDS011;6124;59.460;17.908;2024-02-16T14:23:37;1.60;;;1.50;;
12120;SDS011;6124;59.460;17.908;2024-02-16T14:26:04;1.50;;;1.40;;
12120;SDS011;6124;59.460;17.908;2024-02-16T14:28:31;1.50;;;1.40;;
12120;SDS011;6124;59.460;17.908;2024-02-16T14:30:58;1.50;;;1.40;;
12120;SDS011;6124;59.460;17.908;2024-02-16T14:33:25;1.40;;;1.30;;
12120;SDS011;6124;59.460;17.908;2024-02-16T14:35:53;1.60;;;1.50;;
12120;SDS011;6124;59.460;17.908;2024-02-16T14:38:21;2.10;;;1.90;;
12120;SDS011;6124;59.460;17.908;2024-02-16T14:40:48;3.77;;;1.90;;